Henderson, Nevada Weather observations

Data are for observation ending at time listed.
 Day   Time    Ave.   Ave.  Ave.  Vector   Max.   Stn.    Total    Solar   Ave.  
  of    of     Air    Rel.  Wind   Wind    Wind   Baro.  Precip.   Rad.    Soil  
Year   Day     Temp.  Hum.  Speed  Dir.    Gust   Pres.                    Temp. 
2015   (PST)    F      %     mph   deg.    mph     mb.     in.     W/m2     F   
------------------------------------------------------------------------------
  31    3:50   47.9    95    2.4   297      5.3   933.6    0.00       0    48.1
  31    4:00   47.9    95    1.8   308      3.1   933.6    0.00       0    48.1
  31    4:10   48.0    95    2.2   304      4.1   933.7    0.00       0    48.1
  31    4:20   48.0    95    2.3   302      3.9   933.7    0.00       0    48.1
  31    4:30   48.1    95    2.0   302      3.9   933.7    0.00       0    48.1
  31    4:40   48.2    94    2.1   305      4.2   933.7    0.00       0    48.1
  31    4:50   48.3    94    2.0   303      3.5   933.8    0.00       0    48.1
  31    5:00   48.3    93    1.6   304      3.1   933.8    0.00       0    48.1
  31    5:10   48.3    93    1.6   297      2.9   933.8    0.01       0    48.1
  31    5:20   48.4    93    1.2   296      2.3   933.9    0.00       0    48.1
  31    5:30   48.5    92    0.2   316      1.2   934.1    0.00       0    48.1
  31    5:40   48.5    93    0.3    65      1.2   934.2    0.00       0    48.1
  31    5:50   48.6    93    0.6    87      0.9   934.3    0.00       0    48.2
  31    6:00   48.6    94    0.2    91      0.9   934.3    0.00       0    48.3
  31    6:10   48.7    94    0.0     0      0.0   934.4    0.00       0    48.3
  31    6:20   48.7    94    0.1   194      1.0   934.5    0.00       0    48.3
  31    6:30   48.6    94    0.6   288      2.1   934.6    0.00       0    48.3
  31    6:40   48.5    93    1.7   279      3.2   934.6    0.00       0    48.3
  31    6:50   48.6    92    1.9   295      3.4   934.7    0.00       0    48.3
  31    7:00   48.7    91    2.1   293      4.2   934.8    0.00       7    48.3
  31    7:10   49.0    89    2.3   306      5.1   934.9    0.00      11    48.3
  31    7:20   49.3    87    2.3   302      4.4   934.9    0.00      16    48.3
  31    7:30   49.6    86    2.3   308      4.2   935.0    0.00      23    48.3
  31    7:40   49.7    85    1.9   307      3.8   935.1    0.00      27    48.5
  31    7:50   49.9    85    1.8   312      3.4   935.2    0.00      34    48.7
  31    8:00   50.0    85    1.7   312      3.4   935.4    0.00      33    48.9
  31    8:10   50.1    86    1.4   317      2.9   935.5    0.00      32    49.2
  31    8:20   50.0    86    1.5   302      4.4   935.6    0.00      48    49.4
  31    8:30   50.2    85    2.5   286      5.1   935.7    0.00      57    49.5
  31    8:40   50.7    84    2.0   295      4.0   935.9    0.00      76    49.7
  31    8:50   51.0    81    3.3   299      6.4   936.0    0.00      85    50.0
  31    9:00   51.6    78    4.1   305      7.7   936.2    0.00     154    50.3
  31    9:10   52.3    77    3.7   311      6.4   936.4    0.00     239    51.3
  31    9:20   52.8    76    4.5   305      7.6   936.5    0.00     210    52.5
  31    9:30   53.0    77    2.9   314      7.0   936.6    0.00     231    53.2
  31    9:40   53.6    75    3.6   317      6.1   936.6    0.00     330    54.4
  31    9:50   54.3    73    3.5   323      6.6   936.8    0.00     314    56.4
  31   10:00   55.0    72    3.6   318      7.8   936.8    0.00     453    58.2
  31   10:10   56.1    68    4.7   320      8.3   936.8    0.00     628    60.4
  31   10:20   57.3    66    5.5   318     10.1   936.9    0.00     726    64.1
  31   10:30   57.4    65    4.6   318     10.2   937.0    0.00     515    65.0
  31   10:40   57.8    62    5.6   326     10.5   937.0    0.00     625    65.2
  31   10:50   57.4    61    5.1   320     10.3   937.0    0.00     590    65.1
  31   11:00   58.1    60    4.1   330      8.4   937.0    0.00     673    66.4
  31   11:10   58.1    59    5.0   322      8.8   936.9    0.00     532    66.2
  31   11:20   57.9    60    4.3   326      8.3   936.8    0.00     453    64.6
  31   11:30   58.4    58    5.2   330      9.6   936.7    0.00     504    62.9
  31   11:40   58.7    56    5.1   330     11.2   936.6    0.00     660    61.9
  31   11:50   59.1    57    5.3   320      8.6   936.4    0.00     675    61.5
  31   12:00   59.8    55    4.4   318      8.6   936.3    0.00     680    61.3
  31   12:10   59.8    55    4.5   312      9.3   936.2    0.00     687    61.4
  31   12:20   60.4    52    4.1   332      8.4   936.2    0.00     678    61.4
  31   12:30   60.8    51    3.8   342      8.6   936.1    0.00     621    61.4
  31   12:40   61.3    50    4.1   330      8.8   936.0    0.00     669    61.5
  31   12:50   61.5    49    4.1   341     11.2   936.0    0.00     671    61.6
  31   13:00   61.6    48    4.6   330     10.3   935.8    0.00     695    61.6
  31   13:10   62.1    45    5.1   351     14.5   935.7    0.00     509    61.8
  31   13:20   61.9    44    5.7   333     11.0   935.6    0.00     573    61.7
  31   13:30   62.6    43    3.9     7      8.2   935.6    0.00     621    61.6
  31   13:40   63.0    42    5.4   345     15.3   935.6    0.00     630    61.7
  31   13:50   63.2    41    6.0   356     12.8   935.7    0.00     629    62.1
  31   14:00   62.8    41    5.7   349     13.4   935.8    0.00     285    62.7
  31   14:10   62.4    43    5.2   348     13.0   935.9    0.00     405    62.6
  31   14:20   63.0    42    5.3   349     13.0   935.9    0.00     392    62.6
  31   14:30   62.5    42    6.2     1     14.5   936.1    0.00     462    62.4
  31   14:40   62.9    42    6.6   348     13.0   936.1    0.00     490    62.5
  31   14:50   62.8    41    6.2   354     14.5   936.1    0.00     427    62.4
  31   15:00   62.8    41    5.7   352     15.1   936.1    0.00     415    62.2
  31   15:10   63.2    41    6.3   354     13.4   936.1    0.00     385    62.3
  31   15:20   63.0    42    5.3   341     12.2   936.1    0.00     387    62.4
  31   15:30   63.2    41    5.8   352     12.9   936.1    0.00     352    62.5
  31   15:40   63.1    42    5.4   346     11.5   936.0    0.00     293    62.4
  31   15:50   63.1    42    5.6   347     12.1   935.9    0.00     243    62.2
  31   16:00   62.8    42    4.8   346     12.1   935.9    0.00     207    61.9
  31   16:10   62.5    41    5.0   349     10.8   936.0    0.00     175    61.5
  31   16:20   62.3    42    4.1     1     11.9   935.9    0.00     143    61.1
  31   16:30   62.0    42    4.1   342      8.0   936.0    0.00     103    60.7
  31   16:40   61.8    42    4.0   349      8.5   936.0    0.00      49    60.3
  31   16:50   61.4    43    3.3   344      8.5   936.0    0.00      14    59.8
  31   17:00   60.9    45    2.6   342      5.0   936.1    0.00       7    59.2
  31   17:10   60.4    46    1.9     7      5.3   936.1    0.00       7    58.4
  31   17:20   59.9    47    1.2     6      4.5   936.1    0.00       2    57.6
  31   17:30   59.2    49    1.0     2      4.5   936.2    0.00       0    56.7
  31   17:40   58.7    50    0.9    50      2.4   936.3    0.00       0    55.9
  31   17:50   58.3    53    1.0    72      3.1   936.4    0.00       0    55.2
  31   18:00   58.0    53    1.3   306      2.9   936.7    0.00       0    54.7
  31   18:10   57.1    56    1.6   293      4.1   936.9    0.00       0    54.2
  31   18:20   57.0    55    0.8   307      2.9   937.1    0.00       0    53.7
  31   18:30   56.7    56    1.3   269      2.5   937.3    0.00       0    53.1
  31   18:40   56.3    57    1.0   262      2.0   937.4    0.00       0    52.5
  31   18:50   55.8    59    0.3   265      1.1   937.4    0.00       0    51.9
  31   19:00   54.8    61    0.0     0      0.0   937.6    0.00       0    51.2
  31   19:10   53.9    66    0.1   269      1.9   937.7    0.00       0    50.5
  31   19:20   53.1    67    1.3   230      2.2   937.8    0.00       0    49.9
  31   19:30   53.3    66    2.3   238      3.7   938.0    0.00       0    49.4
  31   19:40   53.4    65    2.2   250      3.1   938.1    0.00       0    49.2
  31   19:50   53.8    63    0.8    93      2.7   938.1    0.00       0    49.0
  31   20:00   53.9    62    0.8    92      1.8   938.1    0.00       0    48.9
  31   20:10   53.6    63    1.4   194      3.1   938.2    0.00       0    48.6
  31   20:20   52.8    66    1.9   218      3.3   938.3    0.00       0    48.3
  31   20:30   52.1    68    1.1   243      2.1   938.5    0.00       0    48.0
  31   20:40   51.2    71    1.5   242      2.9   938.6    0.00       0    47.6
  31   20:50   51.4    70    1.3   237      3.1   938.7    0.00       0    47.2
  31   21:00   51.5    69    2.5   251      3.9   938.9    0.00       0    47.0
  31   21:10   51.8    67    1.9   248      3.1   939.1    0.00       0    46.9
  31   21:20   52.0    66    1.6   230      3.1   939.1    0.00       0    46.8
  31   21:30   51.4    67    2.3   242      3.9   939.3    0.00       0    46.6
  31   21:40   51.8    65    2.3   265      3.4   939.4    0.00       0    46.6
  31   21:50   51.8    64    0.3   274      1.7   939.4    0.00       0    46.6
  31   22:00   50.9    67    0.7   260      2.4   939.5    0.00       0    46.2
  31   22:10   51.4    62    2.8    16      7.0   939.5    0.00       0    46.0
  31   22:20   54.1    54    3.7    18      9.6   939.6    0.00       0    46.9
  31   22:30   55.0    52    3.5     3      8.6   939.6    0.00       0    48.1
  31   22:40   55.1    52    3.2   360      8.0   939.7    0.00       0    48.9
  31   22:50   55.3    50    2.5     9      8.6   939.9    0.00       0    49.4
  31   23:00   55.4    49    2.3    25      6.4   940.0    0.00       0    49.8
  31   23:10   54.8    52    2.2     1      5.7   940.0    0.00       0    49.8
  31   23:20   53.6    55    3.1   313      5.7   940.1    0.00       0    49.7
  31   23:30   52.9    56    3.2   328      7.2   940.1    0.00       0    49.5
  31   23:40   53.2    55    2.9   310      5.9   940.2    0.00       0    49.5
  31   23:50   52.4    57    3.1   289      7.0   940.2    0.00       0    49.3
  32    0:00   51.9    57    3.5   309      7.5   940.2    0.00       0    49.0
  32    0:10   52.9    54    3.6   312      6.2   940.2    0.00       0    48.8
  32    0:20   52.7    54    2.8   304      5.0   940.3    0.00       0    48.8
  32    0:30   52.3    54    2.2   313      4.3   940.4    0.00       0    48.5
  32    0:40   51.7    56    1.8   322      3.3   940.4    0.00       0    48.3
  32    0:50   51.2    56    1.2   354      2.9   940.4    0.00       0    47.8
  32    1:00   50.6    57    0.7   351      2.2   940.5    0.00       0    47.1
  32    1:10   49.7    60    0.6   281      1.2   940.5    0.00       0    46.3
  32    1:20   48.9    62    0.7   232      2.1   940.6    0.00       0    45.5
  32    1:30   48.4    63    1.4   273      2.9   940.6    0.00       0    44.8
  32    1:40   49.1    60    2.5   265      4.0   940.6    0.00       0    44.5
  32    1:50   48.3    64    2.0   233      3.7   940.6    0.00       0    44.5
  32    2:00   48.3    62    1.6   240      3.0   940.6    0.00       0    44.1
  32    2:10   48.0    63    1.0   260      2.7   940.6    0.00       0    43.8
  32    2:20   46.6    67    1.1   342      3.1   940.6    0.00       0    43.3
  32    2:30   46.5    67    1.3   310      2.5   940.8    0.00       0    42.7
  32    2:40   47.4    64    2.6   315      4.1   940.8    0.00       0    42.5
  32    2:50   48.5    61    2.5   320      4.5   940.8    0.00       0    42.9
  32    3:00   49.2    59    2.4   323      5.3   940.9    0.00       0    43.6
  32    3:10   49.5    59    2.4   312      4.2   940.9    0.00       0    44.1
  32    3:20   49.2    59    2.1   305      4.2   940.9    0.00       0    44.3
  32    3:30   48.9    60    2.0   250      4.5   941.1    0.00       0    44.1
  32    3:40   49.2    58    1.6   230      6.4   941.2    0.00       0    44.0

Return to Henderson, Nevada graphs page.


Western Regional Climate Center,wrcc@dri.edu